createdAt,value
2022-11-10T00:00:22.100Z,81.97
2022-11-10T00:02:50.259Z,80.10
2022-11-10T00:05:18.475Z,82.40
2022-11-10T00:07:47.713Z,82.37
2022-11-10T00:10:16.983Z,82.07
2022-11-10T00:12:45.104Z,82.13
2022-11-10T00:15:30.500Z,81.30
2022-11-10T00:17:58.587Z,82.93
2022-11-10T00:20:26.604Z,85.93
2022-11-10T00:22:56.404Z,85.20
2022-11-10T00:25:25.020Z,84.93
2022-11-10T00:27:53.066Z,88.07
2022-11-10T00:30:21.177Z,87.13
2022-11-10T00:32:49.369Z,86.97
2022-11-10T00:35:17.529Z,91.80
2022-11-10T00:37:45.587Z,90.13
2022-11-10T00:40:15.238Z,90.47
2022-11-10T00:42:43.348Z,89.83
2022-11-10T00:45:11.838Z,90.80
2022-11-10T00:47:39.949Z,92.07
2022-11-10T00:50:09.433Z,92.97
2022-11-10T00:52:37.506Z,91.77
2022-11-10T00:55:06.385Z,91.93
2022-11-10T00:57:35.847Z,91.97
2022-11-10T01:00:04.005Z,90.23
2022-11-10T01:02:32.032Z,89.70
2022-11-10T01:05:00.114Z,91.33
2022-11-10T01:07:27.999Z,91.80
2022-11-10T01:09:56.107Z,87.90
2022-11-10T01:12:24.097Z,90.57
2022-11-10T01:14:53.579Z,88.60
2022-11-10T01:17:21.582Z,86.43
2022-11-10T01:19:49.669Z,88.57
2022-11-10T01:22:17.758Z,86.43
2022-11-10T01:24:45.796Z,85.03
2022-11-10T01:27:13.911Z,86.10
2022-11-10T01:29:41.980Z,86.57
2022-11-10T01:32:11.369Z,84.87
2022-11-10T01:34:39.417Z,89.13
2022-11-10T01:37:07.500Z,86.03
2022-11-10T01:39:36.822Z,87.37
2022-11-10T01:42:05.101Z,89.20
2022-11-10T01:44:33.154Z,92.43
2022-11-10T01:47:01.249Z,87.40
2022-11-10T01:49:32.384Z,86.17
2022-11-10T01:52:05.546Z,91.17
2022-11-10T01:54:39.880Z,87.20
2022-11-10T01:57:11.064Z,89.97
2022-11-10T01:59:43.039Z,91.57
2022-11-10T02:02:15.248Z,90.63
2022-11-10T02:04:45.404Z,95.87
2022-11-10T02:07:13.487Z,89.33
2022-11-10T02:09:41.753Z,91.90
2022-11-10T02:12:09.888Z,92.67
2022-11-10T02:14:38.528Z,92.57
2022-11-10T02:17:06.547Z,88.50
2022-11-10T02:19:41.965Z,88.50
2022-11-10T02:22:11.422Z,89.00
2022-11-10T02:24:39.475Z,88.63
2022-11-10T02:27:07.560Z,87.33
2022-11-10T02:29:35.627Z,86.50
2022-11-10T02:32:03.755Z,87.57
2022-11-10T02:34:31.864Z,89.73
2022-11-10T02:36:59.948Z,87.77
2022-11-10T02:39:29.465Z,86.73
2022-11-10T02:41:57.505Z,86.40
2022-11-10T02:44:25.708Z,85.10
2022-11-10T02:46:53.828Z,86.27
2022-11-10T02:49:21.855Z,86.43
2022-11-10T02:51:49.903Z,92.10
2022-11-10T02:54:18.003Z,87.17
2022-11-10T02:56:47.504Z,88.23
2022-11-10T02:59:15.598Z,86.73
2022-11-10T03:01:43.699Z,85.53
2022-11-10T03:04:11.778Z,83.10
2022-11-10T03:06:39.922Z,85.20
2022-11-10T03:09:08.025Z,85.73
2022-11-10T03:11:36.183Z,85.67
2022-11-10T03:14:05.574Z,88.00
2022-11-10T03:16:33.688Z,85.87
2022-11-10T03:19:01.860Z,90.87
2022-11-10T03:21:29.927Z,91.43
2022-11-10T03:23:58.005Z,91.07
2022-11-10T03:26:26.107Z,89.60
2022-11-10T03:28:54.197Z,87.43
2022-11-10T03:31:23.596Z,89.47
2022-11-10T03:33:51.628Z,87.70
2022-11-10T03:36:19.758Z,86.30
2022-11-10T03:38:47.778Z,89.87
2022-11-10T03:41:20.470Z,87.00
2022-11-10T03:43:49.273Z,86.40
2022-11-10T03:46:17.705Z,88.60
2022-11-10T03:48:52.913Z,96.30
2022-11-10T03:51:22.164Z,86.60
2022-11-10T03:53:50.485Z,86.20
2022-11-10T03:56:18.548Z,84.90
2022-11-10T03:58:46.627Z,86.50
2022-11-10T04:01:14.771Z,84.90
2022-11-10T04:03:47.567Z,88.97
2022-11-10T04:06:34.641Z,87.57
2022-11-10T04:09:02.875Z,87.70
2022-11-10T04:11:50.200Z,86.53
2022-11-10T04:14:35.576Z,84.40
2022-11-10T04:17:04.238Z,84.53
2022-11-10T04:19:32.352Z,87.50
2022-11-10T04:22:01.757Z,90.60
2022-11-10T04:24:29.772Z,91.87
2022-11-10T04:26:57.877Z,92.73
2022-11-10T04:29:25.919Z,92.53
2022-11-10T04:31:53.983Z,89.77
2022-11-10T04:34:22.056Z,92.37
2022-11-10T04:36:50.128Z,93.60
2022-11-10T04:39:19.566Z,93.93
2022-11-10T04:41:47.853Z,95.47
2022-11-10T04:44:15.879Z,93.13
2022-11-10T04:46:44.185Z,94.27
2022-11-10T04:49:12.978Z,90.67
2022-11-10T04:51:41.134Z,89.70
2022-11-10T04:54:09.890Z,90.43
2022-11-10T04:56:40.240Z,90.10
2022-11-10T04:59:08.490Z,86.03
2022-11-10T05:01:36.591Z,87.53
2022-11-10T05:04:05.619Z,86.97
2022-11-10T05:06:33.713Z,86.40
2022-11-10T05:09:01.859Z,80.43
2022-11-10T05:11:29.884Z,82.67
2022-11-10T05:13:59.327Z,80.00
2022-11-10T05:16:27.409Z,82.57
2022-11-10T05:18:56.052Z,80.70
2022-11-10T05:21:24.156Z,80.73
2022-11-10T05:23:52.182Z,83.47
2022-11-10T05:26:20.292Z,84.63
2022-11-10T05:28:48.390Z,82.90
2022-11-10T05:31:17.787Z,80.80
2022-11-10T05:33:45.888Z,81.50
2022-11-10T05:36:13.921Z,77.87
2022-11-10T05:38:43.912Z,79.43
2022-11-10T05:41:12.540Z,80.23
2022-11-10T05:43:40.791Z,77.97
2022-11-10T05:46:08.959Z,76.27
2022-11-10T05:48:38.449Z,77.97
2022-11-10T05:51:07.699Z,74.13
2022-11-10T05:53:35.740Z,74.50
2022-11-10T05:56:03.845Z,75.93
2022-11-10T05:58:32.230Z,74.70
2022-11-10T06:01:00.559Z,75.70
2022-11-10T06:03:29.082Z,80.53
2022-11-10T06:05:58.813Z,79.03
2022-11-10T06:08:27.151Z,79.80
2022-11-10T06:10:55.480Z,74.17
2022-11-10T06:13:23.834Z,74.07
2022-11-10T06:15:52.203Z,74.17
2022-11-10T06:18:20.312Z,75.40
2022-11-10T06:20:48.613Z,74.37
2022-11-10T06:23:18.081Z,72.37
2022-11-10T06:25:46.126Z,73.60
2022-11-10T06:28:14.941Z,71.90
2022-11-10T06:30:43.197Z,69.33
2022-11-10T06:33:11.244Z,71.40
2022-11-10T06:35:39.364Z,70.73
2022-11-10T06:38:08.548Z,86.40
2022-11-10T06:40:38.045Z,86.10
2022-11-10T06:43:06.153Z,83.07
2022-11-10T06:45:34.204Z,82.80
2022-11-10T06:48:03.126Z,79.03
2022-11-10T06:50:31.754Z,77.80
2022-11-10T06:53:01.309Z,75.90
2022-11-10T06:55:29.610Z,79.47
2022-11-10T06:57:59.953Z,71.70
2022-11-10T07:00:29.927Z,80.10
2022-11-10T07:03:02.193Z,75.43
2022-11-10T07:05:30.847Z,83.40
2022-11-10T07:08:03.796Z,87.17
2022-11-10T07:10:32.607Z,85.80
2022-11-10T07:13:04.436Z,87.43
2022-11-10T07:15:33.666Z,86.60
2022-11-10T07:18:02.602Z,89.03
2022-11-10T07:20:30.904Z,90.30
2022-11-10T07:23:00.381Z,88.50
2022-11-10T07:25:29.058Z,90.87
2022-11-10T07:27:58.387Z,90.10
2022-11-10T07:30:27.993Z,90.33
2022-11-10T07:33:00.131Z,94.83
2022-11-10T07:35:28.455Z,96.97
2022-11-10T07:37:56.617Z,93.43
2022-11-10T07:40:24.702Z,94.60
2022-11-10T07:42:52.624Z,96.20
2022-11-10T07:45:20.597Z,97.03
2022-11-10T07:47:50.329Z,94.83
2022-11-10T07:50:18.598Z,95.87
2022-11-10T07:52:46.490Z,97.07
2022-11-10T07:55:14.359Z,109.00
2022-11-10T07:57:42.310Z,98.70
2022-11-10T08:00:12.635Z,96.80
2022-11-10T08:02:40.564Z,89.30
2022-11-10T08:05:10.596Z,91.77
2022-11-10T08:07:38.603Z,92.80
2022-11-10T08:10:07.375Z,95.30
2022-11-10T08:12:35.245Z,94.37
2022-11-10T08:15:03.541Z,90.40
2022-11-10T08:17:31.463Z,91.47
2022-11-10T08:19:59.327Z,87.30
2022-11-10T08:22:28.611Z,81.23
2022-11-10T08:24:56.508Z,82.27
2022-11-10T08:27:24.452Z,81.67
2022-11-10T08:29:52.361Z,88.53
2022-11-10T08:32:21.233Z,83.20
2022-11-10T08:34:49.245Z,80.27
2022-11-10T08:37:17.225Z,74.33
2022-11-10T08:39:46.539Z,72.47
2022-11-10T08:42:14.479Z,74.80
2022-11-10T08:44:42.409Z,74.13
2022-11-10T08:47:10.320Z,69.83
2022-11-10T08:49:38.209Z,72.90
2022-11-10T08:52:06.151Z,73.47
2022-11-10T08:54:34.093Z,72.47
2022-11-10T08:57:03.356Z,65.90
2022-11-10T08:59:31.245Z,64.80
2022-11-10T09:01:59.570Z,64.23
2022-11-10T09:04:27.718Z,63.03
2022-11-10T09:06:57.806Z,65.10
2022-11-10T09:09:26.501Z,60.70
2022-11-10T09:11:54.709Z,59.07
2022-11-10T09:14:24.185Z,59.67
2022-11-10T09:16:52.130Z,59.03
2022-11-10T09:19:20.379Z,59.93
2022-11-10T09:21:48.355Z,56.20
2022-11-10T09:24:16.410Z,53.67
2022-11-10T09:26:47.520Z,53.87
2022-11-10T09:29:15.690Z,52.70
2022-11-10T09:31:45.949Z,51.10
2022-11-10T09:34:14.056Z,49.47
2022-11-10T09:36:41.959Z,49.63
2022-11-10T09:39:09.971Z,49.63
2022-11-10T09:41:41.382Z,50.40
2022-11-10T09:44:15.743Z,48.70
2022-11-10T09:46:49.314Z,46.30
2022-11-10T09:49:31.704Z,42.30
2022-11-10T09:52:01.452Z,44.63
2022-11-10T09:54:38.799Z,47.70
2022-11-10T09:57:08.908Z,49.67
2022-11-10T09:59:37.959Z,47.70
2022-11-10T10:02:20.006Z,41.73
2022-11-10T10:05:32.559Z,36.13
2022-11-10T10:08:03.506Z,34.47
2022-11-10T10:10:39.201Z,34.30
2022-11-10T10:13:32.301Z,34.90
2022-11-10T10:16:12.936Z,31.87
2022-11-10T10:18:51.406Z,28.70
2022-11-10T10:21:40.124Z,29.60
2022-11-10T10:24:19.847Z,29.07
2022-11-10T10:26:52.586Z,27.90
2022-11-10T10:29:24.267Z,24.93
2022-11-10T10:31:54.176Z,25.47
2022-11-10T10:34:27.882Z,24.40
2022-11-10T10:36:56.529Z,23.30
2022-11-10T10:39:30.333Z,23.00
2022-11-10T10:41:58.505Z,21.80
2022-11-10T10:44:26.505Z,22.53
2022-11-10T10:46:58.318Z,20.70
2022-11-10T10:49:30.551Z,20.80
2022-11-10T10:52:04.805Z,21.60
2022-11-10T10:54:34.588Z,23.03
2022-11-10T10:57:07.973Z,20.30
2022-11-10T10:59:35.992Z,21.50
2022-11-10T11:02:03.884Z,20.50
2022-11-10T11:04:35.969Z,19.10
2022-11-10T11:07:06.457Z,20.63
2022-11-10T11:09:42.869Z,19.00
2022-11-10T11:12:13.673Z,21.23
2022-11-10T11:14:45.849Z,18.77
2022-11-10T11:17:18.946Z,21.20
2022-11-10T11:19:58.549Z,20.70
2022-11-10T11:22:47.640Z,19.13
2022-11-10T11:25:22.358Z,19.47
2022-11-10T11:27:57.388Z,19.57
2022-11-10T11:30:29.469Z,18.77
2022-11-10T11:33:15.547Z,18.53
2022-11-10T11:35:50.257Z,19.03
2022-11-10T11:38:25.966Z,18.80
2022-11-10T11:41:02.830Z,18.77
2022-11-10T11:44:09.477Z,18.23
2022-11-10T11:46:49.121Z,18.40
2022-11-10T11:49:36.936Z,18.60
2022-11-10T11:52:12.880Z,18.53
2022-11-10T11:55:00.151Z,19.60
2022-11-10T11:57:40.336Z,18.57
2022-11-10T12:00:14.068Z,19.37
2022-11-10T12:03:08.441Z,19.40
2022-11-10T12:05:47.222Z,19.00
2022-11-10T12:08:27.692Z,18.73
2022-11-10T12:11:08.369Z,18.20
2022-11-10T12:13:51.512Z,19.07
2022-11-10T12:16:25.857Z,19.20
2022-11-10T12:19:03.297Z,18.63
2022-11-10T12:21:55.270Z,19.60
2022-11-10T12:24:42.427Z,18.83
2022-11-10T12:27:15.937Z,19.10
2022-11-10T12:29:46.662Z,19.33
2022-11-10T12:32:20.306Z,20.17
2022-11-10T12:34:52.320Z,18.87
2022-11-10T12:37:28.252Z,19.47
2022-11-10T12:40:02.953Z,19.00
2022-11-10T12:42:33.852Z,19.47
2022-11-10T12:45:05.349Z,19.30
2022-11-10T12:47:40.134Z,18.87
2022-11-10T12:50:48.385Z,18.53
2022-11-10T12:53:22.986Z,20.60
2022-11-10T12:55:55.964Z,18.80
2022-11-10T12:58:24.824Z,19.20
2022-11-10T13:00:59.104Z,18.83
2022-11-10T13:03:30.238Z,18.57
2022-11-10T13:06:00.566Z,19.07
2022-11-10T13:08:33.038Z,20.33
2022-11-10T13:11:06.419Z,18.40
2022-11-10T13:13:47.852Z,18.20
2022-11-10T13:16:51.919Z,18.80
2022-11-10T13:19:50.098Z,18.50
2022-11-10T13:22:37.208Z,19.60
2022-11-10T13:25:43.171Z,18.90
2022-11-10T13:28:13.307Z,19.30
2022-11-10T13:30:45.354Z,19.03
2022-11-10T13:33:34.391Z,18.10
2022-11-10T13:36:02.645Z,18.73
2022-11-10T13:38:41.517Z,18.67
2022-11-10T13:41:22.191Z,18.77
2022-11-10T13:43:53.807Z,20.43
2022-11-10T13:46:34.592Z,19.40
2022-11-10T13:49:24.368Z,18.60
2022-11-10T13:52:05.975Z,18.70
2022-11-10T13:55:03.809Z,19.73
2022-11-10T13:57:36.256Z,18.93
2022-11-10T14:00:25.429Z,18.87
2022-11-10T14:02:56.201Z,19.47
2022-11-10T14:06:05.636Z,19.17
2022-11-10T14:08:42.072Z,19.13
2022-11-10T14:11:19.046Z,20.43
2022-11-10T14:13:51.730Z,22.20
2022-11-10T14:16:24.275Z,19.60
2022-11-10T14:18:59.073Z,19.17
2022-11-10T14:21:33.008Z,20.30
2022-11-10T14:24:10.768Z,19.13
2022-11-10T14:26:43.369Z,19.43
2022-11-10T14:29:34.683Z,19.13
2022-11-10T14:32:06.666Z,19.10
2022-11-10T14:34:47.350Z,19.20
2022-11-10T14:37:22.762Z,19.47
2022-11-10T14:39:54.042Z,19.27
2022-11-10T14:42:25.288Z,19.20
2022-11-10T14:45:07.581Z,19.83
2022-11-10T14:47:37.686Z,20.03
2022-11-10T14:50:08.358Z,19.90
2022-11-10T14:52:40.738Z,20.27
2022-11-10T14:55:15.913Z,20.60
2022-11-10T14:57:49.142Z,19.87
2022-11-10T15:00:20.355Z,20.07
2022-11-10T15:02:49.815Z,20.97
2022-11-10T15:05:18.169Z,21.50
2022-11-10T15:07:46.871Z,20.93
2022-11-10T15:10:18.747Z,19.97
2022-11-10T15:12:59.898Z,20.40
2022-11-10T15:15:28.048Z,20.10
2022-11-10T15:17:57.556Z,20.17
2022-11-10T15:20:34.803Z,19.10
2022-11-10T15:23:04.481Z,19.00
2022-11-10T15:25:36.568Z,19.33
2022-11-10T15:28:15.458Z,19.87
2022-11-10T15:30:51.010Z,19.43
2022-11-10T15:33:26.503Z,19.43
2022-11-10T15:35:55.951Z,19.40
2022-11-10T15:38:32.707Z,18.60
2022-11-10T15:41:15.942Z,19.60
2022-11-10T15:43:44.115Z,18.80
2022-11-10T15:46:18.071Z,21.30
2022-11-10T15:48:50.844Z,19.87
2022-11-10T15:51:25.956Z,20.70
2022-11-10T15:53:55.371Z,20.20
2022-11-10T15:56:25.811Z,21.10
2022-11-10T15:58:59.215Z,20.77
2022-11-10T16:01:31.866Z,20.87
2022-11-10T16:04:01.326Z,20.40
2022-11-10T16:06:30.658Z,20.40
2022-11-10T16:08:58.790Z,20.20
2022-11-10T16:11:27.401Z,21.43
2022-11-10T16:13:56.602Z,21.30
2022-11-10T16:16:25.637Z,21.03
2022-11-10T16:18:53.842Z,22.17
2022-11-10T16:21:24.925Z,21.80
2022-11-10T16:23:54.394Z,21.80
2022-11-10T16:26:24.793Z,22.03
2022-11-10T16:28:53.109Z,21.27
2022-11-10T16:31:22.646Z,22.23
2022-11-10T16:33:51.518Z,22.00
2022-11-10T16:36:27.139Z,22.27
2022-11-10T16:38:55.922Z,22.13
2022-11-10T16:41:24.366Z,22.33
2022-11-10T16:43:52.463Z,22.17
2022-11-10T16:46:23.014Z,22.93
2022-11-10T16:48:53.151Z,23.10
2022-11-10T16:51:29.638Z,25.50
2022-11-10T16:53:59.472Z,24.30
2022-11-10T16:56:27.874Z,23.90
2022-11-10T16:58:56.019Z,23.73
2022-11-10T17:01:27.415Z,24.13
2022-11-10T17:03:58.324Z,24.20
2022-11-10T17:06:30.127Z,25.80
2022-11-10T17:09:02.660Z,27.07
2022-11-10T17:11:30.766Z,25.50
2022-11-10T17:13:58.820Z,25.70
2022-11-10T17:16:29.513Z,25.60
2022-11-10T17:18:59.619Z,26.10
2022-11-10T17:21:32.882Z,26.87
2022-11-10T17:24:02.759Z,26.77
2022-11-10T17:26:31.414Z,28.50
2022-11-10T17:28:59.664Z,26.80
2022-11-10T17:31:27.689Z,25.87
2022-11-10T17:33:55.837Z,27.43
2022-11-10T17:36:24.889Z,26.90
2022-11-10T17:38:54.383Z,26.10
2022-11-10T17:41:22.452Z,26.87
2022-11-10T17:43:50.643Z,27.33
2022-11-10T17:46:18.698Z,26.47
2022-11-10T17:48:47.827Z,26.40
2022-11-10T17:51:19.683Z,27.23
2022-11-10T17:53:48.097Z,28.13
2022-11-10T17:56:17.744Z,29.50
2022-11-10T17:58:46.822Z,30.80
2022-11-10T18:01:17.698Z,30.20
2022-11-10T18:03:46.523Z,28.70
2022-11-10T18:06:15.517Z,29.20
2022-11-10T18:08:43.964Z,29.50
2022-11-10T18:11:13.251Z,31.13
2022-11-10T18:13:43.662Z,31.03
2022-11-10T18:16:12.861Z,32.00
2022-11-10T18:18:41.020Z,33.45
2022-11-10T18:21:12.441Z,34.20
2022-11-10T18:23:40.517Z,34.50
2022-11-10T18:26:11.575Z,33.50
2022-11-10T18:28:42.080Z,34.20
2022-11-10T18:31:13.695Z,33.53
2022-11-10T18:33:41.808Z,33.47
2022-11-10T18:36:11.215Z,33.60
2022-11-10T18:38:39.263Z,34.23
2022-11-10T18:41:22.360Z,36.07
2022-11-10T18:43:50.642Z,35.20
2022-11-10T18:46:20.332Z,36.27
2022-11-10T18:48:48.804Z,35.43
2022-11-10T18:51:17.627Z,37.17
2022-11-10T18:53:45.750Z,37.97
2022-11-10T18:56:14.443Z,36.60
2022-11-10T18:58:43.133Z,36.07
2022-11-10T19:01:12.093Z,35.77
2022-11-10T19:03:42.804Z,35.77
2022-11-10T19:06:13.035Z,36.07
2022-11-10T19:08:41.465Z,36.10
2022-11-10T19:11:11.035Z,34.93
2022-11-10T19:13:39.996Z,35.63
2022-11-10T19:16:09.178Z,35.73
2022-11-10T19:18:38.705Z,35.97
2022-11-10T19:21:09.943Z,36.20
2022-11-10T19:23:38.509Z,39.90
2022-11-10T19:26:09.999Z,38.70
2022-11-10T19:28:38.180Z,37.37
2022-11-10T19:31:08.181Z,37.33
2022-11-10T19:33:39.617Z,37.67
2022-11-10T19:36:11.218Z,38.23
2022-11-10T19:38:39.556Z,39.17
2022-11-10T19:41:09.971Z,39.60
2022-11-10T19:43:40.616Z,40.00
2022-11-10T19:46:15.284Z,40.87
2022-11-10T19:48:43.932Z,40.00
2022-11-10T19:51:14.777Z,42.00
2022-11-10T19:53:43.399Z,41.83
2022-11-10T19:56:14.445Z,42.63
2022-11-10T19:58:43.417Z,44.47
2022-11-10T20:01:12.525Z,44.50
2022-11-10T20:03:40.960Z,46.70
2022-11-10T20:06:11.394Z,45.63
2022-11-10T20:08:40.932Z,47.17
2022-11-10T20:11:10.779Z,47.37
2022-11-10T20:13:40.417Z,50.75
2022-11-10T20:16:11.718Z,50.43
2022-11-10T20:18:41.814Z,50.50
2022-11-10T20:21:11.741Z,48.53
2022-11-10T20:23:41.822Z,49.80
2022-11-10T20:26:11.843Z,50.90
2022-11-10T20:28:41.222Z,51.60
2022-11-10T20:31:12.142Z,53.63
2022-11-10T20:33:40.615Z,52.73
2022-11-10T20:36:15.954Z,54.20
2022-11-10T20:38:49.131Z,54.93
2022-11-10T20:41:19.728Z,54.47
2022-11-10T20:43:48.844Z,56.17
2022-11-10T20:46:40.318Z,55.23
2022-11-10T20:49:07.174Z,54.47
2022-11-10T20:51:35.265Z,55.70
2022-11-10T20:54:05.077Z,57.83
2022-11-10T20:56:33.188Z,59.23
2022-11-10T20:59:01.423Z,59.67
2022-11-10T21:01:29.894Z,58.07
2022-11-10T21:03:58.168Z,58.63
2022-11-10T21:06:26.341Z,58.10
2022-11-10T21:08:56.121Z,58.07
2022-11-10T21:11:51.622Z,57.03
2022-11-10T21:14:19.777Z,57.07
2022-11-10T21:16:47.838Z,56.90
2022-11-10T21:19:15.904Z,58.10
2022-11-10T21:21:44.359Z,60.27
2022-11-10T21:24:12.728Z,59.70
2022-11-10T21:26:42.241Z,63.27
2022-11-10T21:29:11.592Z,64.00
2022-11-10T21:31:39.759Z,65.60
2022-11-10T21:34:07.971Z,67.72
2022-11-10T21:36:36.048Z,65.87
2022-11-10T21:39:04.098Z,65.67
2022-11-10T21:41:32.552Z,65.33
2022-11-10T21:44:01.996Z,64.13
2022-11-10T21:46:30.028Z,62.20
2022-11-10T21:49:01.940Z,63.07
2022-11-10T21:51:32.754Z,65.60
2022-11-10T21:54:00.778Z,64.47
2022-11-10T21:56:28.944Z,63.00
2022-11-10T21:58:57.050Z,65.30
2022-11-10T22:01:26.537Z,65.07
2022-11-10T22:03:54.627Z,64.90
2022-11-10T22:06:22.944Z,63.13
2022-11-10T22:08:50.991Z,64.60
2022-11-10T22:11:37.872Z,64.10
2022-11-10T22:14:29.909Z,65.10
2022-11-10T22:17:18.473Z,65.53
2022-11-10T22:19:46.592Z,67.27
2022-11-10T22:22:15.157Z,69.27
2022-11-10T22:24:43.216Z,65.87
2022-11-10T22:27:11.293Z,68.03
2022-11-10T22:29:39.351Z,63.03
2022-11-10T22:32:08.818Z,63.13
2022-11-10T22:34:36.932Z,64.70
2022-11-10T22:37:05.197Z,62.40
2022-11-10T22:39:47.253Z,65.10
2022-11-10T22:42:33.127Z,67.10
2022-11-10T22:45:01.174Z,64.33
2022-11-10T22:47:50.606Z,68.20
2022-11-10T22:50:18.698Z,68.13
2022-11-10T22:52:46.827Z,70.80
2022-11-10T22:55:15.074Z,70.83
2022-11-10T22:57:43.100Z,69.37
2022-11-10T23:00:12.458Z,69.30
2022-11-10T23:02:41.831Z,72.27
2022-11-10T23:05:10.144Z,72.03
2022-11-10T23:07:38.050Z,71.37
2022-11-10T23:10:06.860Z,73.60
2022-11-10T23:12:34.974Z,65.40
2022-11-10T23:15:03.020Z,68.60
2022-11-10T23:17:31.085Z,68.60
2022-11-10T23:20:00.486Z,71.40
2022-11-10T23:22:29.383Z,71.00
2022-11-10T23:24:57.728Z,71.17
2022-11-10T23:27:25.815Z,76.83
2022-11-10T23:29:53.916Z,76.43
2022-11-10T23:32:21.961Z,79.00
2022-11-10T23:34:50.056Z,80.30
2022-11-10T23:37:21.012Z,81.10
2022-11-10T23:39:49.026Z,78.90
2022-11-10T23:42:17.147Z,80.20
2022-11-10T23:44:45.211Z,79.43
2022-11-10T23:47:13.271Z,86.10
2022-11-10T23:49:41.351Z,82.73
2022-11-10T23:52:09.424Z,81.17
2022-11-10T23:54:38.830Z,78.03
2022-11-10T23:57:06.896Z,79.47
2022-11-10T23:59:34.976Z,79.37
